Time;durP1;ratioP1;P1;durP2;ratioP2;P2;SDS_P1;SDS_P2;PMS_P1;PMS_P2;Temp;Humidity;BMP_temperature;BMP_pressure;BME280_temperature;BME280_humidity;BME280_pressure;Samples;Min_cycle;Max_cycle;Signal;HPM_P1;HPM_P2
2022/10/18 00:10:00;;;;;;;13.25;7.63;;;;;;;14.68;100.00;101204.53;20499587;29;20300;-72
2022/10/18 00:20:02;;;;;;;19.17;8.48;;;;;;;14.83;100.00;101212.13;20500393;29;20051;-72
2022/10/18 00:30:03;;;;;;;15.32;7.57;;;;;;;14.88;100.00;101207.63;20497575;29;20059;-71
2022/10/18 00:40:04;;;;;;;16.35;8.38;;;;;;;14.95;100.00;101211.03;20497026;28;20563;-71
2022/10/18 00:50:06;;;;;;;14.63;8.52;;;;;;;15.11;100.00;101195.75;20497772;29;20070;-72
2022/10/18 01:00:08;;;;;;;17.90;8.90;;;;;;;15.18;100.00;101202.59;20495903;28;20055;-71
2022/10/18 01:10:10;;;;;;;10.23;6.97;;;;;;;15.20;100.00;101202.59;20495429;28;20055;-73
2022/10/18 01:20:11;;;;;;;9.35;5.90;;;;;;;15.22;100.00;101190.22;20496022;29;20051;-74
2022/10/18 01:30:13;;;;;;;10.73;5.82;;;;;;;15.22;100.00;101188.47;20495428;29;20057;-71
2022/10/18 01:40:14;;;;;;;9.52;5.70;;;;;;;15.22;100.00;101182.31;20494727;29;20753;-73
2022/10/18 01:50:15;;;;;;;9.88;5.15;;;;;;;15.18;100.00;101183.28;20503499;28;20421;-73
2022/10/18 02:00:16;;;;;;;10.35;5.57;;;;;;;15.16;100.00;101182.47;20509454;29;20051;-72
2022/10/18 02:10:18;;;;;;;11.07;5.22;;;;;;;15.16;100.00;101171.91;20509246;29;20118;-72
2022/10/18 02:20:19;;;;;;;10.20;5.60;;;;;;;15.12;100.00;101176.38;20508311;29;20079;-72
2022/10/18 02:30:20;;;;;;;9.82;5.20;;;;;;;15.15;100.00;101149.94;20507141;29;20090;-72
2022/10/18 02:40:22;;;;;;;10.90;5.15;;;;;;;15.05;100.00;101151.91;20506838;28;20081;-73
2022/10/18 02:50:23;;;;;;;16.13;5.57;;;;;;;15.05;100.00;101162.47;20506033;29;20058;-73
2022/10/18 03:00:24;;;;;;;9.30;5.38;;;;;;;15.10;100.00;101155.31;20505783;28;20063;-74
2022/10/18 03:10:26;;;;;;;9.90;5.28;;;;;;;15.12;100.00;101156.13;20505408;29;20053;-73
2022/10/18 03:20:27;;;;;;;13.82;6.45;;;;;;;15.12;100.00;101156.13;20504096;29;20063;-73
2022/10/18 03:30:28;;;;;;;9.75;5.32;;;;;;;15.18;100.00;101180.63;20502865;29;20040;-72
2022/10/18 03:40:30;;;;;;;11.85;5.53;;;;;;;15.20;100.00;101179.72;20461104;29;20056;-72
2022/10/18 03:50:31;;;;;;;9.43;5.00;;;;;;;15.25;100.00;101184.91;20461765;29;20449;-73
2022/10/18 04:00:32;;;;;;;12.18;5.75;;;;;;;15.32;100.00;101183.84;20375213;29;20040;-72
2022/10/18 04:10:33;;;;;;;11.65;6.60;;;;;;;15.60;100.00;101195.50;20338692;29;20067;-73
2022/10/18 04:20:35;;;;;;;11.73;7.07;;;;;;;15.69;100.00;101194.44;20340513;29;20544;-73
2022/10/18 04:30:36;;;;;;;10.18;6.53;;;;;;;15.56;100.00;101192.97;20396345;29;20086;-73
2022/10/18 04:40:37;;;;;;;12.30;6.78;;;;;;;15.51;100.00;101200.97;20495635;29;20055;-73
2022/10/18 04:50:39;;;;;;;22.48;9.27;;;;;;;15.43;100.00;101197.69;20496800;29;20066;-73
2022/10/18 05:00:41;;;;;;;12.55;6.75;;;;;;;15.35;100.00;101203.13;20496289;29;20050;-72
2022/10/18 05:10:42;;;;;;;14.30;6.10;;;;;;;15.47;100.00;101207.22;20496520;29;20070;-72
2022/10/18 05:20:43;;;;;;;10.43;6.10;;;;;;;15.57;100.00;101216.69;20497727;28;20444;-73
2022/10/18 05:30:45;;;;;;;8.88;4.88;;;;;;;15.64;100.00;101218.31;20519692;28;20600;-73
2022/10/18 05:40:46;;;;;;;10.48;5.32;;;;;;;15.66;100.00;101215.63;20519721;28;20062;-73
2022/10/18 05:50:47;;;;;;;10.93;5.28;;;;;;;15.65;100.00;101212.13;20520573;28;20139;-73
2022/10/18 06:00:49;;;;;;;8.82;4.97;;;;;;;15.79;100.00;101200.38;20518190;28;20069;-73
2022/10/18 06:10:50;;;;;;;13.43;5.97;;;;;;;15.90;100.00;101222.09;20513849;28;20090;-72
2022/10/18 06:20:51;;;;;;;11.55;5.32;;;;;;;16.02;100.00;101224.44;20439741;29;20102;-73
2022/10/18 06:30:53;;;;;;;11.95;5.03;;;;;;;16.15;100.00;101225.00;20469635;28;20063;-73
2022/10/18 06:40:54;;;;;;;9.98;4.93;;;;;;;16.24;100.00;101237.09;20503636;28;20078;-73
2022/10/18 06:50:55;;;;;;;15.23;5.00;;;;;;;16.35;100.00;101251.78;20505661;28;20496;-71
2022/10/18 07:00:57;;;;;;;10.77;5.13;;;;;;;16.13;100.00;101279.63;20446039;29;20048;-70
2022/10/18 07:10:58;;;;;;;8.38;4.68;;;;;;;16.07;100.00;101275.38;20420979;29;20150;-70
2022/10/18 07:20:59;;;;;;;9.80;5.05;;;;;;;16.10;100.00;101291.16;20418709;29;20498;-70
2022/10/18 07:31:01;;;;;;;11.82;5.97;;;;;;;16.16;100.00;101316.56;20428451;29;20051;-72
2022/10/18 07:41:06;;;;;;;12.60;6.43;;;;;;;16.16;100.00;101322.72;20421685;29;20083;-73
2022/10/18 07:51:07;;;;;;;11.15;6.10;;;;;;;16.22;100.00;101326.97;20420946;29;20150;-73
2022/10/18 08:01:09;;;;;;;8.32;5.28;;;;;;;16.35;100.00;101323.13;20420150;29;20756;-73
2022/10/18 08:11:10;;;;;;;9.30;6.35;;;;;;;16.50;100.00;101321.88;20421003;29;20142;-74
2022/10/18 08:21:12;;;;;;;9.95;6.43;;;;;;;16.80;100.00;101324.66;20421269;29;20062;-75
2022/10/18 08:31:13;;;;;;;9.65;5.65;;;;;;;17.27;100.00;101335.72;20456486;29;20080;-75
2022/10/18 08:41:14;;;;;;;13.38;6.55;;;;;;;17.33;100.00;101328.47;20498255;29;20082;-75
2022/10/18 08:51:16;;;;;;;10.20;5.53;;;;;;;17.42;100.00;101337.91;20497445;29;20051;-75
2022/10/18 09:01:17;;;;;;;11.05;4.40;;;;;;;17.75;100.00;101335.22;20497173;28;20524;-79
2022/10/18 09:11:18;;;;;;;9.15;4.97;;;;;;;17.94;100.00;101324.00;20498006;29;20047;-77
2022/10/18 09:21:21;;;;;;;12.75;4.40;;;;;;;18.09;100.00;101333.25;20502306;29;20071;-75
2022/10/18 09:31:23;;;;;;;10.60;4.43;;;;;;;18.31;100.00;101349.34;20499775;29;20664;-75
2022/10/18 09:41:24;;;;;;;12.30;4.80;;;;;;;18.46;100.00;101359.44;20499920;28;20055;-78
2022/10/18 09:51:25;;;;;;;11.10;5.15;;;;;;;18.54;100.00;101350.34;20496319;29;20051;-75
2022/10/18 10:01:27;;;;;;;8.57;4.45;;;;;;;18.85;100.00;101361.69;20444117;29;20079;-75
2022/10/18 10:11:28;;;;;;;6.70;3.97;;;;;;;19.16;100.00;101369.44;20342939;29;20486;-74
2022/10/18 10:21:29;;;;;;;10.05;3.83;;;;;;;19.32;100.00;101374.19;20351151;29;20047;-76
2022/10/18 10:31:31;;;;;;;6.47;3.47;;;;;;;19.15;100.00;101367.69;20420075;29;20527;-74
2022/10/18 10:41:32;;;;;;;11.15;3.70;;;;;;;18.92;100.00;101375.59;20507477;29;20047;-73
2022/10/18 10:51:35;;;;;;;5.40;3.20;;;;;;;19.04;100.00;101383.13;20506216;29;20052;-72
2022/10/18 11:01:36;;;;;;;5.03;2.85;;;;;;;19.65;100.00;101378.28;20504367;29;20241;-73
2022/10/18 11:11:38;;;;;;;7.30;2.85;;;;;;;19.93;100.00;101371.88;20505655;29;20099;-72
2022/10/18 11:21:39;;;;;;;5.50;2.58;;;;;;;20.18;100.00;101362.03;20509421;28;20050;-75
2022/10/18 11:31:40;;;;;;;4.38;2.65;;;;;;;20.10;100.00;101355.28;20501984;29;20159;-76
2022/10/18 11:41:42;;;;;;;6.75;2.50;;;;;;;20.21;100.00;101348.59;20500948;28;20047;-75
2022/10/18 11:51:43;;;;;;;5.72;3.30;;;;;;;20.02;100.00;101347.59;20497538;28;20564;-75
2022/10/18 12:02:04;;;;;;;7.60;3.08;;;;;;;20.02;100.00;101341.44;20420584;29;20405;-75
2022/10/18 12:12:06;;;;;;;5.75;3.30;;;;;;;20.24;100.00;101335.19;20419956;29;20079;-76
2022/10/18 12:22:07;;;;;;;5.18;3.05;;;;;;;20.40;100.00;101331.88;20420337;29;20112;-76
2022/10/18 12:32:08;;;;;;;7.05;3.38;;;;;;;20.62;100.00;101316.78;20458920;28;20114;-76
2022/10/18 12:42:10;;;;;;;7.93;3.50;;;;;;;20.73;100.00;101321.63;20497544;29;20141;-76
2022/10/18 12:52:11;;;;;;;8.60;4.80;;;;;;;20.56;100.00;101306.41;20498138;29;20082;-75
2022/10/18 13:02:12;;;;;;;7.15;5.43;;;;;;;20.38;100.00;101339.06;20496596;29;20074;-75
2022/10/18 13:12:14;;;;;;;8.68;5.97;;;;;;;20.33;100.00;101319.78;20448223;29;20413;-75
2022/10/18 13:22:15;;;;;;;9.32;5.88;;;;;;;20.54;100.00;101299.41;20338392;29;20139;-75
2022/10/18 13:32:16;;;;;;;7.75;5.40;;;;;;;20.59;100.00;101305.41;20419974;29;20067;-75
2022/10/18 13:42:17;;;;;;;8.25;5.50;;;;;;;20.58;100.00;101304.53;20497833;28;20070;-75
2022/10/18 13:52:19;;;;;;;9.02;5.30;;;;;;;20.53;100.00;101317.19;20509979;29;20058;-75
2022/10/18 14:02:20;;;;;;;6.75;4.97;;;;;;;20.51;100.00;101299.56;20511730;29;20496;-75
2022/10/18 14:12:41;;;;;;;8.07;5.18;;;;;;;20.36;100.00;101309.00;20480759;29;20051;-75
2022/10/18 14:22:43;;;;;;;7.85;6.28;;;;;;;20.28;100.00;101316.44;20426100;29;20048;-74
2022/10/18 14:32:44;;;;;;;7.78;5.53;;;;;;;20.22;100.00;101323.75;20469490;29;20067;-75
2022/10/18 14:42:45;;;;;;;7.60;6.40;;;;;;;20.11;100.00;101325.97;20453316;29;20040;-75
2022/10/18 14:52:46;;;;;;;7.70;5.47;;;;;;;20.06;100.00;101322.63;20424171;29;20055;-75
2022/10/18 15:02:48;;;;;;;8.38;6.32;;;;;;;20.07;100.00;101332.34;20422766;29;20503;-75
2022/10/18 15:12:49;;;;;;;7.53;4.63;;;;;;;19.73;100.00;101324.84;20423623;29;20095;-75
2022/10/18 15:23:09;;;;;;;6.30;3.90;;;;;;;19.47;100.00;101331.13;20423220;29;20425;-75
2022/10/18 15:33:11;;;;;;;10.80;5.32;;;;;;;19.21;100.00;101326.78;20467719;29;20071;-75
2022/10/18 15:43:12;;;;;;;6.35;4.18;;;;;;;19.07;100.00;101327.31;20500284;29;20047;-75
2022/10/18 15:53:13;;;;;;;6.28;3.70;;;;;;;18.82;100.00;101329.94;20498498;29;20055;-75
2022/10/18 16:03:15;;;;;;;7.53;5.00;;;;;;;18.67;100.00;101339.25;20426191;29;20494;-74
2022/10/18 16:13:16;;;;;;;6.38;4.07;;;;;;;18.48;100.00;101329.34;20409056;29;20138;-75
2022/10/18 16:23:19;;;;;;;7.05;4.70;;;;;;;18.41;100.00;101340.16;20417615;29;20523;-76
2022/10/18 16:33:20;;;;;;;7.63;4.88;;;;;;;18.33;100.00;101330.72;20457057;29;20496;-75
2022/10/18 16:43:22;;;;;;;14.20;6.35;;;;;;;18.25;100.00;101349.50;20409815;29;20059;-74
2022/10/18 16:53:23;;;;;;;9.40;6.28;;;;;;;18.15;100.00;101351.59;20416897;29;20047;-75
2022/10/18 17:03:25;;;;;;;9.30;5.60;;;;;;;18.20;100.00;101356.75;20407094;29;20040;-75
2022/10/18 17:13:26;;;;;;;9.20;4.85;;;;;;;18.12;100.00;101366.75;20444973;29;20079;-75
2022/10/18 17:23:27;;;;;;;9.13;4.78;;;;;;;18.13;100.00;101381.72;20402607;29;20097;-75
2022/10/18 17:33:29;;;;;;;7.70;4.38;;;;;;;18.04;100.00;101379.38;20394599;29;20541;-76
2022/10/18 17:43:30;;;;;;;11.57;3.92;;;;;;;18.05;100.00;101384.59;20395727;29;20048;-75
2022/10/18 17:53:33;;;;;;;8.07;3.22;;;;;;;17.78;100.00;101396.06;20398577;29;20071;-75
2022/10/18 18:03:35;;;;;;;8.98;4.60;;;;;;;17.65;100.00;101396.38;20395212;29;20047;-76
2022/10/18 18:13:36;;;;;;;6.40;3.15;;;;;;;17.60;100.00;101402.72;20393601;28;20055;-75
2022/10/18 18:23:37;;;;;;;5.70;3.13;;;;;;;17.53;100.00;101407.31;20395989;29;20075;-75
2022/10/18 18:44:23;;;;;;;8.57;2.13;;;;;;;17.41;100.00;101391.78;20524912;28;20130;-80
2022/10/18 18:54:27;;;;;;;4.85;1.60;;;;;;;17.37;100.00;101403.38;20551760;28;20530;-82
2022/10/18 19:04:28;;;;;;;5.60;2.75;;;;;;;17.31;100.00;101406.19;20513133;29;20047;-83
2022/10/18 19:14:30;;;;;;;3.00;1.80;;;;;;;17.24;100.00;101397.53;20514668;28;20094;-83
2022/10/18 19:24:31;;;;;;;4.13;1.80;;;;;;;17.12;100.00;101395.25;20541913;28;20054;-83
2022/10/18 19:34:33;;;;;;;3.90;1.92;;;;;;;17.07;100.00;101389.19;20530423;28;20074;-83
2022/10/18 19:44:34;;;;;;;4.80;1.83;;;;;;;17.13;100.00;101387.25;20549401;28;20467;-81
2022/10/18 19:54:36;;;;;;;4.82;2.10;;;;;;;17.00;100.00;101391.13;20543799;28;20043;-81
2022/10/18 20:04:37;;;;;;;3.13;1.70;;;;;;;16.88;100.00;101384.41;20562510;28;20118;-81
2022/10/18 20:14:38;;;;;;;10.27;2.55;;;;;;;16.56;100.00;101379.88;20534011;28;20063;-82
2022/10/18 20:24:40;;;;;;;6.72;2.33;;;;;;;16.35;100.00;101381.28;20519229;28;20117;-84
2022/10/18 20:34:41;;;;;;;17.55;6.22;;;;;;;16.20;100.00;101391.34;20523010;28;20067;-83
2022/10/18 20:44:43;;;;;;;6.78;3.60;;;;;;;15.85;100.00;101396.50;20615950;28;20039;-85
2022/10/18 20:54:44;;;;;;;6.95;3.70;;;;;;;15.96;100.00;101388.38;20624510;28;20090;-84
2022/10/18 21:04:45;;;;;;;11.00;3.40;;;;;;;15.89;100.00;101392.03;20558385;28;20051;-85
2022/10/18 21:14:47;;;;;;;7.38;3.58;;;;;;;15.82;100.00;101387.78;20580099;28;20488;-85
2022/10/18 21:24:48;;;;;;;7.53;4.53;;;;;;;15.65;100.00;101373.16;20591403;28;20139;-84
2022/10/18 21:34:49;;;;;;;7.78;4.47;;;;;;;15.48;100.00;101361.22;20632843;28;20043;-83
2022/10/18 21:44:51;;;;;;;7.57;3.90;;;;;;;15.42;100.00;101364.81;20530683;28;20051;-84
2022/10/18 21:54:52;;;;;;;8.75;3.58;;;;;;;15.36;100.00;101365.81;20505936;28;20492;-84
2022/10/18 22:04:54;;;;;;;8.88;4.10;;;;;;;15.28;100.00;101354.56;20501679;28;20040;-82
2022/10/18 22:14:55;;;;;;;8.63;4.13;;;;;;;15.14;100.00;101349.56;20500254;28;20047;-84
2022/10/18 22:24:57;;;;;;;10.75;3.92;;;;;;;14.99;100.00;101348.94;20497831;29;20055;-85
2022/10/18 22:34:58;;;;;;;9.13;4.07;;;;;;;14.85;100.00;101336.91;20508544;28;20101;-84
2022/10/18 22:44:59;;;;;;;11.57;4.25;;;;;;;14.75;100.00;101331.81;20506611;28;20565;-84
2022/10/18 22:55:01;;;;;;;9.18;5.50;;;;;;;14.80;100.00;101329.97;20500512;28;20089;-84
2022/10/18 23:05:02;;;;;;;13.70;6.10;;;;;;;14.83;100.00;101332.56;20507108;28;21382;-84
2022/10/18 23:15:03;;;;;;;13.25;6.47;;;;;;;14.73;100.00;101325.72;20498018;28;20082;-83
2022/10/18 23:25:05;;;;;;;14.20;5.95;;;;;;;14.63;100.00;101330.28;20494647;29;20039;-83
2022/10/18 23:35:06;;;;;;;18.85;6.63;;;;;;;14.50;100.00;101334.88;20495277;29;20070;-83
2022/10/18 23:45:07;;;;;;;14.02;6.88;;;;;;;14.41;100.00;101335.00;20503755;28;20412;-84
2022/10/18 23:55:09;;;;;;;16.08;8.30;;;;;;;14.63;100.00;101336.44;20532328;28;20059;-83
